sensor_id;sensor_type;location;lat;lon;timestamp;pressure;altitude;pressure_sealevel;temperature;humidity
71239;BME280;61342;51.442;7.370;2022-12-20T00:00:50;99998.44;;;12.17;74.38
71239;BME280;61342;51.442;7.370;2022-12-20T00:01:51;99999.22;;;12.17;74.40
71239;BME280;61342;51.442;7.370;2022-12-20T00:02:51;100000.75;;;12.18;74.37
71239;BME280;61342;51.442;7.370;2022-12-20T00:03:54;99994.22;;;12.18;74.29
71239;BME280;61342;51.442;7.370;2022-12-20T00:04:55;99987.16;;;12.19;74.19
71239;BME280;61342;51.442;7.370;2022-12-20T00:05:55;99991.34;;;12.18;74.16
71239;BME280;61342;51.442;7.370;2022-12-20T00:06:55;99995.00;;;12.18;74.46
71239;BME280;61342;51.442;7.370;2022-12-20T00:07:56;100000.25;;;12.20;73.96
71239;BME280;61342;51.442;7.370;2022-12-20T00:08:59;99997.34;;;12.20;74.21
71239;BME280;61342;51.442;7.370;2022-12-20T00:09:59;100005.00;;;12.17;74.19
71239;BME280;61342;51.442;7.370;2022-12-20T00:11:01;99996.81;;;12.21;74.36
71239;BME280;61342;51.442;7.370;2022-12-20T00:12:02;100019.31;;;12.23;74.06
71239;BME280;61342;51.442;7.370;2022-12-20T00:13:03;100004.91;;;12.23;73.96
71239;BME280;61342;51.442;7.370;2022-12-20T00:14:03;100006.47;;;12.24;74.02
71239;BME280;61342;51.442;7.370;2022-12-20T00:15:04;100000.16;;;12.25;74.01
71239;BME280;61342;51.442;7.370;2022-12-20T00:16:08;100000.91;;;12.26;73.85
71239;BME280;61342;51.442;7.370;2022-12-20T00:17:09;99996.72;;;12.27;73.85
71239;BME280;61342;51.442;7.370;2022-12-20T00:18:09;100003.25;;;12.27;73.77
71239;BME280;61342;51.442;7.370;2022-12-20T00:19:10;100008.47;;;12.29;73.84
71239;BME280;61342;51.442;7.370;2022-12-20T00:20:11;99994.06;;;12.29;73.98
71239;BME280;61342;51.442;7.370;2022-12-20T00:21:13;99996.41;;;12.30;73.82
71239;BME280;61342;51.442;7.370;2022-12-20T00:22:14;99997.19;;;12.31;73.61
71239;BME280;61342;51.442;7.370;2022-12-20T00:23:14;100000.06;;;12.31;73.92
71239;BME280;61342;51.442;7.370;2022-12-20T00:24:14;99998.75;;;12.32;73.65
71239;BME280;61342;51.442;7.370;2022-12-20T00:25:15;100001.06;;;12.33;73.68
71239;BME280;61342;51.442;7.370;2022-12-20T00:26:17;99974.34;;;12.33;73.53
71239;BME280;61342;51.442;7.370;2022-12-20T00:27:18;99984.53;;;12.34;73.65
71239;BME280;61342;51.442;7.370;2022-12-20T00:28:18;99979.03;;;12.36;73.67
71239;BME280;61342;51.442;7.370;2022-12-20T00:29:19;99973.81;;;12.34;73.72
71239;BME280;61342;51.442;7.370;2022-12-20T00:30:19;99982.66;;;12.36;73.64
71239;BME280;61342;51.442;7.370;2022-12-20T00:31:21;99976.13;;;12.36;73.61
71239;BME280;61342;51.442;7.370;2022-12-20T00:32:22;99968.50;;;12.38;73.67
71239;BME280;61342;51.442;7.370;2022-12-20T00:33:23;99967.69;;;12.38;73.56
71239;BME280;61342;51.442;7.370;2022-12-20T00:34:23;99975.03;;;12.39;73.29
71239;BME280;61342;51.442;7.370;2022-12-20T00:35:24;99951.97;;;12.39;73.66
71239;BME280;61342;51.442;7.370;2022-12-20T00:36:26;99968.16;;;12.42;73.64
71239;BME280;61342;51.442;7.370;2022-12-20T00:37:26;99959.50;;;12.42;72.91
71239;BME280;61342;51.442;7.370;2022-12-20T00:38:27;99955.31;;;12.43;73.49
71239;BME280;61342;51.442;7.370;2022-12-20T00:39:27;99950.88;;;12.42;73.29
71239;BME280;61342;51.442;7.370;2022-12-20T00:40:27;99947.44;;;12.43;73.35
71239;BME280;61342;51.442;7.370;2022-12-20T00:41:32;99943.22;;;12.44;73.34
71239;BME280;61342;51.442;7.370;2022-12-20T00:42:33;99941.66;;;12.43;73.19
71239;BME280;61342;51.442;7.370;2022-12-20T00:43:33;99950.56;;;12.45;73.20
71239;BME280;61342;51.442;7.370;2022-12-20T00:44:34;99946.09;;;12.44;73.06
71239;BME280;61342;51.442;7.370;2022-12-20T00:45:34;99938.47;;;12.47;73.06
71239;BME280;61342;51.442;7.370;2022-12-20T00:46:35;99941.66;;;12.43;72.77
71239;BME280;61342;51.442;7.370;2022-12-20T00:47:35;99956.53;;;12.47;73.08
71239;BME280;61342;51.442;7.370;2022-12-20T00:48:36;99943.47;;;12.46;72.90
71239;BME280;61342;51.442;7.370;2022-12-20T00:49:36;99951.56;;;12.48;73.07
71239;BME280;61342;51.442;7.370;2022-12-20T00:50:37;99942.34;;;12.49;72.85
71239;BME280;61342;51.442;7.370;2022-12-20T00:51:37;99942.91;;;12.48;72.86
71239;BME280;61342;51.442;7.370;2022-12-20T00:52:38;99928.25;;;12.46;72.83
71239;BME280;61342;51.442;7.370;2022-12-20T00:53:38;99933.47;;;12.47;72.86
71239;BME280;61342;51.442;7.370;2022-12-20T00:54:39;99927.69;;;12.47;73.33
71239;BME280;61342;51.442;7.370;2022-12-20T00:55:43;99937.16;;;12.48;72.77
71239;BME280;61342;51.442;7.370;2022-12-20T00:56:44;99948.13;;;12.49;73.12
71239;BME280;61342;51.442;7.370;2022-12-20T00:57:44;99949.44;;;12.48;72.72
71239;BME280;61342;51.442;7.370;2022-12-20T00:58:45;99944.47;;;12.49;73.03
71239;BME280;61342;51.442;7.370;2022-12-20T00:59:45;99947.13;;;12.47;72.73
71239;BME280;61342;51.442;7.370;2022-12-20T01:00:46;99952.88;;;12.47;72.81
71239;BME280;61342;51.442;7.370;2022-12-20T01:01:46;99946.00;;;12.50;72.91
71239;BME280;61342;51.442;7.370;2022-12-20T01:02:47;99963.31;;;12.50;73.40
71239;BME280;61342;51.442;7.370;2022-12-20T01:03:48;99946.00;;;12.50;72.75
71239;BME280;61342;51.442;7.370;2022-12-20T01:04:49;99953.13;;;12.49;73.02
71239;BME280;61342;51.442;7.370;2022-12-20T01:05:54;99959.09;;;12.51;73.06
71239;BME280;61342;51.442;7.370;2022-12-20T01:06:55;99961.97;;;12.51;72.74
71239;BME280;61342;51.442;7.370;2022-12-20T01:07:55;99970.63;;;12.51;72.67
71239;BME280;61342;51.442;7.370;2022-12-20T01:08:57;99963.31;;;12.50;72.77
71239;BME280;61342;51.442;7.370;2022-12-20T01:09:57;99963.31;;;12.50;73.05
71239;BME280;61342;51.442;7.370;2022-12-20T01:12:07;99973.31;;;12.49;72.69
71239;BME280;61342;51.442;7.370;2022-12-20T01:13:08;99983.72;;;12.52;72.80
71239;BME280;61342;51.442;7.370;2022-12-20T01:14:12;100001.03;;;12.52;72.78
71239;BME280;61342;51.442;7.370;2022-12-20T01:15:13;100008.34;;;12.53;72.78
71239;BME280;61342;51.442;7.370;2022-12-20T01:16:26;100009.69;;;12.52;72.67
71239;BME280;61342;51.442;7.370;2022-12-20T01:17:27;100003.34;;;12.53;72.51
71239;BME280;61342;51.442;7.370;2022-12-20T01:18:27;99995.25;;;12.52;72.85
71239;BME280;61342;51.442;7.370;2022-12-20T01:19:28;99995.00;;;12.50;72.79
71239;BME280;61342;51.442;7.370;2022-12-20T01:20:28;99987.94;;;12.51;72.75
71239;BME280;61342;51.442;7.370;2022-12-20T01:21:28;99998.16;;;12.52;72.64
71239;BME280;61342;51.442;7.370;2022-12-20T01:22:30;99999.72;;;12.53;72.75
71239;BME280;61342;51.442;7.370;2022-12-20T01:23:30;99998.34;;;12.54;72.93
71239;BME280;61342;51.442;7.370;2022-12-20T01:24:30;99982.41;;;12.53;72.88
71239;BME280;61342;51.442;7.370;2022-12-20T01:25:31;99981.63;;;12.52;72.90
71239;BME280;61342;51.442;7.370;2022-12-20T01:26:31;99972.41;;;12.54;72.86
71239;BME280;61342;51.442;7.370;2022-12-20T01:27:31;99961.44;;;12.52;72.93
71239;BME280;61342;51.442;7.370;2022-12-20T01:28:32;99960.88;;;12.54;72.75
71239;BME280;61342;51.442;7.370;2022-12-20T01:29:32;99956.47;;;12.53;73.10
71239;BME280;61342;51.442;7.370;2022-12-20T01:30:33;99952.22;;;12.54;72.92
71239;BME280;61342;51.442;7.370;2022-12-20T01:31:33;99956.47;;;12.53;72.84
71239;BME280;61342;51.442;7.370;2022-12-20T01:32:33;99960.09;;;12.53;72.76
71239;BME280;61342;51.442;7.370;2022-12-20T01:33:35;99947.25;;;12.54;72.87
71239;BME280;61342;51.442;7.370;2022-12-20T01:34:36;99943.00;;;12.55;72.97
71239;BME280;61342;51.442;7.370;2022-12-20T01:35:36;99942.03;;;12.53;72.95
71239;BME280;61342;51.442;7.370;2022-12-20T01:36:37;99940.13;;;12.55;72.97
71239;BME280;61342;51.442;7.370;2022-12-20T01:37:37;99945.38;;;12.57;72.82
71239;BME280;61342;51.442;7.370;2022-12-20T01:38:38;99946.91;;;12.58;72.93
71239;BME280;61342;51.442;7.370;2022-12-20T01:39:38;99943.81;;;12.56;73.00
71239;BME280;61342;51.442;7.370;2022-12-20T01:40:38;99946.91;;;12.58;72.82
71239;BME280;61342;51.442;7.370;2022-12-20T01:41:39;99958.44;;;12.58;72.76
71239;BME280;61342;51.442;7.370;2022-12-20T01:42:40;99955.81;;;12.60;72.52
71239;BME280;61342;51.442;7.370;2022-12-20T01:43:51;99944.25;;;12.60;73.04
71239;BME280;61342;51.442;7.370;2022-12-20T01:44:54;99950.78;;;12.60;72.90
71239;BME280;61342;51.442;7.370;2022-12-20T01:45:55;99941.38;;;12.60;72.95
71239;BME280;61342;51.442;7.370;2022-12-20T01:46:55;99938.72;;;12.62;72.93
71239;BME280;61342;51.442;7.370;2022-12-20T01:47:57;99942.94;;;12.61;72.89
71239;BME280;61342;51.442;7.370;2022-12-20T01:49:25;99940.06;;;12.61;72.96
71239;BME280;61342;51.442;7.370;2022-12-20T01:50:27;99944.47;;;12.62;73.50
71239;BME280;61342;51.442;7.370;2022-12-20T01:51:29;99943.47;;;12.59;72.96
71239;BME280;61342;51.442;7.370;2022-12-20T01:52:35;99941.38;;;12.60;73.14
71239;BME280;61342;51.442;7.370;2022-12-20T01:53:36;99939.25;;;12.60;73.22
71239;BME280;61342;51.442;7.370;2022-12-20T01:54:38;99942.38;;;12.62;73.09
71239;BME280;61342;51.442;7.370;2022-12-20T01:55:39;99935.81;;;12.62;73.17
71239;BME280;61342;51.442;7.370;2022-12-20T01:56:42;99934.50;;;12.63;73.25
71239;BME280;61342;51.442;7.370;2022-12-20T01:58:57;99933.50;;;12.60;73.38
71239;BME280;61342;51.442;7.370;2022-12-20T01:59:58;99923.53;;;12.61;73.41
71239;BME280;61342;51.442;7.370;2022-12-20T02:00:58;99925.66;;;12.61;73.83
71239;BME280;61342;51.442;7.370;2022-12-20T02:02:01;99934.28;;;12.61;73.46
71239;BME280;61342;51.442;7.370;2022-12-20T02:03:04;99925.66;;;12.61;73.83
71239;BME280;61342;51.442;7.370;2022-12-20T02:04:05;99921.19;;;12.60;73.93
71239;BME280;61342;51.442;7.370;2022-12-20T02:05:06;99919.63;;;12.59;74.33
71239;BME280;61342;51.442;7.370;2022-12-20T02:06:17;99928.28;;;12.59;73.88
71239;BME280;61342;51.442;7.370;2022-12-20T02:07:21;99913.09;;;12.58;73.91
71239;BME280;61342;51.442;7.370;2022-12-20T02:08:23;99925.41;;;12.59;73.90
71239;BME280;61342;51.442;7.370;2022-12-20T02:09:24;99918.06;;;12.58;74.11
71239;BME280;61342;51.442;7.370;2022-12-20T02:11:15;99933.84;;;12.57;74.13
71239;BME280;61342;51.442;7.370;2022-12-20T02:13:07;99931.50;;;12.55;73.89
71239;BME280;61342;51.442;7.370;2022-12-20T02:17:11;99933.41;;;12.53;74.23
71239;BME280;61342;51.442;7.370;2022-12-20T02:18:37;99921.63;;;12.51;74.47
71239;BME280;61342;51.442;7.370;2022-12-20T02:23:43;99916.97;;;12.48;74.42
71239;BME280;61342;51.442;7.370;2022-12-20T02:29:12;99896.66;;;12.40;74.48
71239;BME280;61342;51.442;7.370;2022-12-20T02:30:20;99901.66;;;12.40;74.92
71239;BME280;61342;51.442;7.370;2022-12-20T02:31:27;99890.88;;;12.40;74.53
71239;BME280;61342;51.442;7.370;2022-12-20T02:32:59;99888.56;;;12.39;74.68
71239;BME280;61342;51.442;7.370;2022-12-20T02:34:02;99894.31;;;12.39;74.71
71239;BME280;61342;51.442;7.370;2022-12-20T02:35:04;99890.13;;;12.40;74.65
71239;BME280;61342;51.442;7.370;2022-12-20T02:36:06;99893.00;;;12.40;74.75
71239;BME280;61342;51.442;7.370;2022-12-20T02:37:08;99892.19;;;12.39;74.61
71239;BME280;61342;51.442;7.370;2022-12-20T02:39:26;99900.09;;;12.39;75.07
71239;BME280;61342;51.442;7.370;2022-12-20T02:40:32;99905.09;;;12.38;74.82
71239;BME280;61342;51.442;7.370;2022-12-20T02:41:40;99896.97;;;12.37;74.82
71239;BME280;61342;51.442;7.370;2022-12-20T02:42:42;99901.66;;;12.40;74.85
71239;BME280;61342;51.442;7.370;2022-12-20T02:43:46;99908.94;;;12.41;74.77
71239;BME280;61342;51.442;7.370;2022-12-20T02:45:08;99911.63;;;12.39;74.67
71239;BME280;61342;51.442;7.370;2022-12-20T02:46:16;99916.06;;;12.40;74.87
71239;BME280;61342;51.442;7.370;2022-12-20T02:47:28;99914.25;;;12.37;74.79
71239;BME280;61342;51.442;7.370;2022-12-20T02:48:31;99902.41;;;12.40;75.05
71239;BME280;61342;51.442;7.370;2022-12-20T02:49:36;99893.00;;;12.40;74.81
71239;BME280;61342;51.442;7.370;2022-12-20T02:50:47;99890.88;;;12.40;74.59
71239;BME280;61342;51.442;7.370;2022-12-20T02:51:51;99888.00;;;12.40;74.39
71239;BME280;61342;51.442;7.370;2022-12-20T02:52:54;99884.56;;;12.42;74.75
71239;BME280;61342;51.442;7.370;2022-12-20T02:53:55;99882.78;;;12.39;74.40
71239;BME280;61342;51.442;7.370;2022-12-20T02:54:57;99888.31;;;12.37;74.58
71239;BME280;61342;51.442;7.370;2022-12-20T02:59:27;99889.13;;;12.37;74.55
71239;BME280;61342;51.442;7.370;2022-12-20T03:00:33;99881.22;;;12.38;74.27
71239;BME280;61342;51.442;7.370;2022-12-20T03:01:40;99877.03;;;12.39;74.44
71239;BME280;61342;51.442;7.370;2022-12-20T03:02:44;99877.78;;;12.39;74.24
71239;BME280;61342;51.442;7.370;2022-12-20T03:04:29;99881.78;;;12.36;74.31
71239;BME280;61342;51.442;7.370;2022-12-20T03:05:32;99881.22;;;12.38;74.61
71239;BME280;61342;51.442;7.370;2022-12-20T03:06:33;99882.78;;;12.39;74.71
71239;BME280;61342;51.442;7.370;2022-12-20T03:07:34;99866.59;;;12.36;74.56
71239;BME280;61342;51.442;7.370;2022-12-20T03:08:34;99872.38;;;12.36;74.37
71239;BME280;61342;51.442;7.370;2022-12-20T03:09:37;99863.94;;;12.38;74.51
71239;BME280;61342;51.442;7.370;2022-12-20T03:10:38;99879.91;;;12.39;74.42
71239;BME280;61342;51.442;7.370;2022-12-20T03:11:38;99891.44;;;12.39;74.56
71239;BME280;61342;51.442;7.370;2022-12-20T03:12:38;99882.56;;;12.37;74.52
71239;BME280;61342;51.442;7.370;2022-12-20T03:13:39;99890.13;;;12.40;74.65
71239;BME280;61342;51.442;7.370;2022-12-20T03:14:39;99894.88;;;12.37;74.88
71239;BME280;61342;51.442;7.370;2022-12-20T03:15:40;99905.84;;;12.39;74.44
71239;BME280;61342;51.442;7.370;2022-12-20T03:16:40;99911.63;;;12.39;74.32
71239;BME280;61342;51.442;7.370;2022-12-20T03:17:41;99915.81;;;12.38;74.55
71239;BME280;61342;51.442;7.370;2022-12-20T03:18:41;99930.03;;;12.36;74.46
71239;BME280;61342;51.442;7.370;2022-12-20T03:19:41;99914.25;;;12.37;74.66
71239;BME280;61342;51.442;7.370;2022-12-20T03:20:42;99913.03;;;12.32;74.62
71239;BME280;61342;51.442;7.370;2022-12-20T03:21:42;99905.59;;;12.37;74.66
71239;BME280;61342;51.442;7.370;2022-12-20T03:22:43;99911.38;;;12.37;74.60
71239;BME280;61342;51.442;7.370;2022-12-20T03:23:43;99904.63;;;12.34;74.50
71239;BME280;61342;51.442;7.370;2022-12-20T03:24:44;99909.28;;;12.37;74.77
71239;BME280;61342;51.442;7.370;2022-12-20T03:25:44;99912.72;;;12.36;74.48
71239;BME280;61342;51.442;7.370;2022-12-20T03:26:44;99915.59;;;12.36;74.66
71239;BME280;61342;51.442;7.370;2022-12-20T03:27:45;99912.72;;;12.36;74.77
71239;BME280;61342;51.442;7.370;2022-12-20T03:28:45;99914.03;;;12.35;74.78
71239;BME280;61342;51.442;7.370;2022-12-20T03:29:45;99911.94;;;12.35;74.73
71239;BME280;61342;51.442;7.370;2022-12-20T03:30:46;99915.59;;;12.36;74.87
71239;BME280;61342;51.442;7.370;2022-12-20T03:31:46;99913.28;;;12.34;74.80
71239;BME280;61342;51.442;7.370;2022-12-20T03:32:47;99919.03;;;12.34;74.59
71239;BME280;61342;51.442;7.370;2022-12-20T03:33:47;99920.13;;;12.31;74.82
71239;BME280;61342;51.442;7.370;2022-12-20T03:34:47;99910.91;;;12.33;74.84
71239;BME280;61342;51.442;7.370;2022-12-20T03:35:48;99914.81;;;12.35;75.01
71239;BME280;61342;51.442;7.370;2022-12-20T03:36:48;99915.38;;;12.34;74.95
71239;BME280;61342;51.442;7.370;2022-12-20T03:37:49;99910.41;;;12.34;75.05
71239;BME280;61342;51.442;7.370;2022-12-20T03:38:50;99909.59;;;12.34;74.90
71239;BME280;61342;51.442;7.370;2022-12-20T03:39:51;99917.47;;;12.33;74.97
71239;BME280;61342;51.442;7.370;2022-12-20T03:40:51;99904.38;;;12.32;75.10
71239;BME280;61342;51.442;7.370;2022-12-20T03:41:51;99900.75;;;12.32;75.39
71239;BME280;61342;51.442;7.370;2022-12-20T03:42:52;99915.38;;;12.34;75.20
71239;BME280;61342;51.442;7.370;2022-12-20T03:43:52;99898.63;;;12.32;75.46
71239;BME280;61342;51.442;7.370;2022-12-20T03:44:52;99895.53;;;12.30;75.14
71239;BME280;61342;51.442;7.370;2022-12-20T03:45:53;99899.38;;;12.33;75.37
71239;BME280;61342;51.442;7.370;2022-12-20T03:46:53;99903.63;;;12.32;75.46
71239;BME280;61342;51.442;7.370;2022-12-20T03:47:53;99904.38;;;12.32;75.21
71239;BME280;61342;51.442;7.370;2022-12-20T03:48:54;99909.38;;;12.32;75.24
71239;BME280;61342;51.442;7.370;2022-12-20T03:49:54;99904.50;;;12.27;75.48
71239;BME280;61342;51.442;7.370;2022-12-20T03:50:54;99913.03;;;12.32;75.65
71239;BME280;61342;51.442;7.370;2022-12-20T03:51:55;99903.16;;;12.28;76.12
71239;BME280;61342;51.442;7.370;2022-12-20T03:52:55;99910.47;;;12.29;75.65
71239;BME280;61342;51.442;7.370;2022-12-20T03:53:55;99908.38;;;12.29;75.61
71239;BME280;61342;51.442;7.370;2022-12-20T03:54:56;99911.25;;;12.29;75.43
71239;BME280;61342;51.442;7.370;2022-12-20T03:55:56;99904.19;;;12.30;75.80
71239;BME280;61342;51.442;7.370;2022-12-20T03:56:56;99890.63;;;12.25;75.84
71239;BME280;61342;51.442;7.370;2022-12-20T03:57:57;99903.94;;;12.28;76.01
71239;BME280;61342;51.442;7.370;2022-12-20T03:58:57;99906.81;;;12.28;76.33
71239;BME280;61342;51.442;7.370;2022-12-20T03:59:57;99897.94;;;12.26;76.12
71239;BME280;61342;51.442;7.370;2022-12-20T04:00:58;99903.69;;;12.26;76.16
71239;BME280;61342;51.442;7.370;2022-12-20T04:01:58;99898.28;;;12.23;76.13
71239;BME280;61342;51.442;7.370;2022-12-20T04:02:58;99893.28;;;12.23;76.32
71239;BME280;61342;51.442;7.370;2022-12-20T04:03:59;99908.25;;;12.22;76.43
71239;BME280;61342;51.442;7.370;2022-12-20T04:04:59;99898.84;;;12.21;76.60
71239;BME280;61342;51.442;7.370;2022-12-20T04:05:59;99905.91;;;12.20;76.43
71239;BME280;61342;51.442;7.370;2022-12-20T04:07:00;99893.63;;;12.20;76.49
71239;BME280;61342;51.442;7.370;2022-12-20T04:08:00;99912.22;;;12.19;76.50
71239;BME280;61342;51.442;7.370;2022-12-20T04:09:01;99903.59;;;12.19;76.74
71239;BME280;61342;51.442;7.370;2022-12-20T04:10:01;99902.34;;;12.14;77.13
71239;BME280;61342;51.442;7.370;2022-12-20T04:11:02;99908.34;;;12.16;76.83
71239;BME280;61342;51.442;7.370;2022-12-20T04:12:15;99908.91;;;12.15;76.78
71239;BME280;61342;51.442;7.370;2022-12-20T04:13:15;99906.00;;;12.15;76.86
71239;BME280;61342;51.442;7.370;2022-12-20T04:14:15;99905.78;;;12.13;76.84
71239;BME280;61342;51.442;7.370;2022-12-20T04:15:16;99901.13;;;12.10;77.12
71239;BME280;61342;51.442;7.370;2022-12-20T04:16:25;99890.34;;;12.10;77.02
71239;BME280;61342;51.442;7.370;2022-12-20T04:17:25;99893.47;;;12.12;76.96
71239;BME280;61342;51.442;7.370;2022-12-20T04:18:26;99878.81;;;12.10;77.13
71239;BME280;61342;51.442;7.370;2022-12-20T04:19:26;99873.63;;;12.09;77.23
71239;BME280;61342;51.442;7.370;2022-12-20T04:20:26;99887.25;;;12.08;77.44
71239;BME280;61342;51.442;7.370;2022-12-20T04:21:29;99882.25;;;12.09;77.21
71239;BME280;61342;51.442;7.370;2022-12-20T04:22:29;99886.50;;;12.08;77.10
71239;BME280;61342;51.442;7.370;2022-12-20T04:23:30;99886.50;;;12.08;76.95
71239;BME280;61342;51.442;7.370;2022-12-20T04:24:30;99886.50;;;12.08;77.50
71239;BME280;61342;51.442;7.370;2022-12-20T04:25:30;99886.50;;;12.08;77.58
71239;BME280;61342;51.442;7.370;2022-12-20T04:26:31;99886.50;;;12.08;77.21
71239;BME280;61342;51.442;7.370;2022-12-20T04:27:31;99882.06;;;12.07;77.45
71239;BME280;61342;51.442;7.370;2022-12-20T04:28:32;99892.25;;;12.08;77.38
71239;BME280;61342;51.442;7.370;2022-12-20T04:29:32;99892.25;;;12.08;77.58
71239;BME280;61342;51.442;7.370;2022-12-20T04:30:33;99890.69;;;12.07;77.61
71239;BME280;61342;51.442;7.370;2022-12-20T04:31:33;99884.13;;;12.07;77.52
71239;BME280;61342;51.442;7.370;2022-12-20T04:32:33;99895.66;;;12.07;77.80
71239;BME280;61342;51.442;7.370;2022-12-20T04:33:34;99887.81;;;12.07;77.86
71239;BME280;61342;51.442;7.370;2022-12-20T04:34:34;99891.78;;;12.04;77.84
71239;BME280;61342;51.442;7.370;2022-12-20T04:35:36;99898.53;;;12.07;77.94
71239;BME280;61342;51.442;7.370;2022-12-20T04:36:36;99887.56;;;12.05;77.82
71239;BME280;61342;51.442;7.370;2022-12-20T04:37:37;99888.88;;;12.04;77.96
71239;BME280;61342;51.442;7.370;2022-12-20T04:38:37;99884.22;;;12.01;78.15
71239;BME280;61342;51.442;7.370;2022-12-20T04:39:37;99891.00;;;12.04;78.10
71239;BME280;61342;51.442;7.370;2022-12-20T04:40:38;99905.97;;;12.02;78.28
71239;BME280;61342;51.442;7.370;2022-12-20T04:41:38;99921.13;;;12.03;78.39
71239;BME280;61342;51.442;7.370;2022-12-20T04:42:38;99891.56;;;12.02;78.58
71239;BME280;61342;51.442;7.370;2022-12-20T04:43:39;99892.31;;;12.03;78.73
71239;BME280;61342;51.442;7.370;2022-12-20T04:44:39;99899.97;;;12.00;78.46
71239;BME280;61342;51.442;7.370;2022-12-20T04:45:39;99888.22;;;11.98;78.44
71239;BME280;61342;51.442;7.370;2022-12-20T04:46:40;99896.31;;;12.00;78.59
71239;BME280;61342;51.442;7.370;2022-12-20T04:47:40;99882.47;;;11.98;78.89
71239;BME280;61342;51.442;7.370;2022-12-20T04:48:40;99881.69;;;11.98;78.98
71239;BME280;61342;51.442;7.370;2022-12-20T04:49:41;99886.66;;;11.97;78.70
71239;BME280;61342;51.442;7.370;2022-12-20T04:50:41;99887.22;;;11.96;79.09
71239;BME280;61342;51.442;7.370;2022-12-20T04:51:42;99887.22;;;11.96;78.84
71239;BME280;61342;51.442;7.370;2022-12-20T04:52:42;99876.25;;;11.94;79.02
71239;BME280;61342;51.442;7.370;2022-12-20T04:54:01;99882.00;;;11.94;79.15
71239;BME280;61342;51.442;7.370;2022-12-20T04:55:02;99870.47;;;11.94;79.13
71239;BME280;61342;51.442;7.370;2022-12-20T04:56:02;99871.81;;;11.93;79.50
71239;BME280;61342;51.442;7.370;2022-12-20T04:57:03;99878.66;;;11.90;79.50
71239;BME280;61342;51.442;7.370;2022-12-20T04:58:03;99880.78;;;11.90;79.71
71239;BME280;61342;51.442;7.370;2022-12-20T04:59:04;99882.09;;;11.89;79.78
71239;BME280;61342;51.442;7.370;2022-12-20T05:00:05;99885.75;;;11.89;79.86
71239;BME280;61342;51.442;7.370;2022-12-20T05:01:05;99884.19;;;11.88;79.70
71239;BME280;61342;51.442;7.370;2022-12-20T05:02:05;99886.28;;;11.88;80.09
71239;BME280;61342;51.442;7.370;2022-12-20T05:03:06;99873.75;;;11.85;80.23
71239;BME280;61342;51.442;7.370;2022-12-20T05:04:06;99885.28;;;11.85;80.28
71239;BME280;61342;51.442;7.370;2022-12-20T05:05:07;99896.81;;;11.85;80.52
71239;BME280;61342;51.442;7.370;2022-12-20T05:06:07;99887.94;;;11.83;80.60
71239;BME280;61342;51.442;7.370;2022-12-20T05:07:08;99889.03;;;11.80;80.45
71239;BME280;61342;51.442;7.370;2022-12-20T05:08:08;99895.78;;;11.83;80.92
71239;BME280;61342;51.442;7.370;2022-12-20T05:09:08;99892.69;;;11.81;80.80
71239;BME280;61342;51.442;7.370;2022-12-20T05:10:09;99895.56;;;11.81;80.98
71239;BME280;61342;51.442;7.370;2022-12-20T05:11:10;99893.78;;;11.78;81.06
71239;BME280;61342;51.442;7.370;2022-12-20T05:12:10;99885.13;;;11.78;81.13
71239;BME280;61342;51.442;7.370;2022-12-20T05:13:10;99889.34;;;11.77;80.88
71239;BME280;61342;51.442;7.370;2022-12-20T05:14:11;99883.91;;;11.73;81.14
71239;BME280;61342;51.442;7.370;2022-12-20T05:15:11;99880.81;;;11.71;81.46
71239;BME280;61342;51.442;7.370;2022-12-20T05:16:12;99889.66;;;11.73;81.52
71239;BME280;61342;51.442;7.370;2022-12-20T05:17:12;99896.97;;;11.74;81.61
71239;BME280;61342;51.442;7.370;2022-12-20T05:18:13;99890.97;;;11.72;81.63
71239;BME280;61342;51.442;7.370;2022-12-20T05:19:13;99879.25;;;11.70;81.78
71239;BME280;61342;51.442;7.370;2022-12-20T05:20:14;99875.34;;;11.68;81.81
71239;BME280;61342;51.442;7.370;2022-12-20T05:21:15;99869.34;;;11.66;81.93
71239;BME280;61342;51.442;7.370;2022-12-20T05:22:34;99868.84;;;11.67;82.08
71239;BME280;61342;51.442;7.370;2022-12-20T05:23:52;99865.00;;;11.59;82.25
71239;BME280;61342;51.442;7.370;2022-12-20T05:25:12;99882.22;;;11.65;82.21
71239;BME280;61342;51.442;7.370;2022-12-20T05:26:35;99871.84;;;11.56;82.35
71239;BME280;61342;51.442;7.370;2022-12-20T05:27:35;99867.13;;;11.59;82.53
71239;BME280;61342;51.442;7.370;2022-12-20T05:28:36;99866.44;;;11.53;82.41
71239;BME280;61342;51.442;7.370;2022-12-20T05:29:36;99867.41;;;11.55;82.38
71239;BME280;61342;51.442;7.370;2022-12-20T05:30:36;99870.53;;;11.57;82.41
71239;BME280;61342;51.442;7.370;2022-12-20T05:31:37;99872.09;;;11.58;82.31
71239;BME280;61342;51.442;7.370;2022-12-20T05:32:37;99854.69;;;11.51;82.50
71239;BME280;61342;51.442;7.370;2022-12-20T05:33:38;99851.25;;;11.52;82.19
71239;BME280;61342;51.442;7.370;2022-12-20T05:34:38;99857.81;;;11.53;82.45
71239;BME280;61342;51.442;7.370;2022-12-20T05:35:38;99844.22;;;11.48;82.71
71239;BME280;61342;51.442;7.370;2022-12-20T05:36:39;99855.44;;;11.51;82.64
71239;BME280;61342;51.442;7.370;2022-12-20T05:37:39;99861.66;;;11.55;82.75
71239;BME280;61342;51.442;7.370;2022-12-20T05:38:40;99854.94;;;11.48;82.89
71239;BME280;61342;51.442;7.370;2022-12-20T05:39:41;99864.06;;;11.51;82.77
71239;BME280;61342;51.442;7.370;2022-12-20T05:40:41;99866.91;;;11.57;82.80
71239;BME280;61342;51.442;7.370;2022-12-20T05:41:42;99867.66;;;11.57;82.76
71239;BME280;61342;51.442;7.370;2022-12-20T05:42:42;99848.16;;;11.51;83.03
71239;BME280;61342;51.442;7.370;2022-12-20T05:43:43;99849.94;;;11.53;82.95
71239;BME280;61342;51.442;7.370;2022-12-20T05:44:44;99855.91;;;11.55;83.05
71239;BME280;61342;51.442;7.370;2022-12-20T05:45:51;99840.84;;;11.50;82.96
71239;BME280;61342;51.442;7.370;2022-12-20T05:46:51;99838.63;;;11.55;82.96
71239;BME280;61342;51.442;7.370;2022-12-20T05:47:52;99825.69;;;11.49;83.08
71239;BME280;61342;51.442;7.370;2022-12-20T05:48:52;99816.00;;;11.47;83.38